Time;durP1;ratioP1;P1;durP2;ratioP2;P2;SDS_P1;SDS_P2;PMS_P1;PMS_P2;Temp;Humidity;BMP_temperature;BMP_pressure;BME280_temperature;BME280_humidity;BME280_pressure;Samples;Min_cycle;Max_cycle;Signal;HPM_P1;HPM_P2
2022/01/21 00:00:49;;;;;;;;;;;3.20;96.60;;;;;;5045323;28;20008;-69
2022/01/21 00:03:15;;;;;;;;;;;3.20;96.70;;;;;;5045680;28;19949;-69
2022/01/21 00:05:40;;;;;;;;;;;3.20;96.60;;;;;;5045862;28;19920;-69
2022/01/21 00:08:06;;;;;;;;;;;3.20;96.70;;;;;;5044392;28;20297;-69
2022/01/21 00:10:31;;;;;;;;;;;3.10;96.70;;;;;;5028853;28;20373;-69
2022/01/21 00:12:58;;;;;;;;;;;3.20;96.70;;;;;;5044753;28;20055;-69
2022/01/21 00:15:23;;;;;;;;;;;3.20;96.80;;;;;;5045146;28;19913;-69
2022/01/21 00:17:49;;;;;;;;;;;3.20;96.80;;;;;;5045008;28;19921;-69
2022/01/21 00:31:11;;;;;;;;;;;3.20;96.70;;;;;;5050072;28;20394;-69
2022/01/21 00:33:37;;;;;;;;;;;3.20;96.70;;;;;;5047683;28;19921;-69
2022/01/21 00:36:03;;;;;;;;;;;3.20;96.70;;;;;;5057501;28;19916;-69
2022/01/21 00:38:30;;;;;;;;;;;3.20;96.70;;;;;;5047162;28;20400;-69
2022/01/21 00:40:59;;;;;;;;;;;3.20;96.70;;;;;;5047066;28;20262;-69
2022/01/21 00:43:43;;;;;;;;;;;3.10;96.70;;;;;;5030217;28;20540;-69
2022/01/21 00:46:09;;;;;;;;;;;3.10;96.70;;;;;;5044653;28;19920;-69
2022/01/21 00:48:35;;;;;;;;;;;3.10;96.70;;;;;;5034258;28;19917;-69
2022/01/21 00:51:00;;;;;;;;;;;3.20;96.70;;;;;;5045651;28;19913;-69
2022/01/21 00:53:26;;;;;;;;;;;3.10;96.70;;;;;;5066831;28;19951;-69
2022/01/21 00:55:51;;;;;;;;;;;3.10;96.70;;;;;;5031668;28;19919;-69
2022/01/21 00:58:17;;;;;;;;;;;3.10;96.70;;;;;;5052584;28;19917;-69
2022/01/21 01:00:42;;;;;;;;;;;3.10;96.70;;;;;;5046906;28;20397;-69
2022/01/21 01:03:08;;;;;;;;;;;3.10;96.70;;;;;;5055644;28;19955;-69
2022/01/21 01:05:33;;;;;;;;;;;3.10;96.70;;;;;;5048630;28;19920;-69
2022/01/21 01:08:00;;;;;;;;;;;3.10;96.70;;;;;;5046908;28;19917;-69
2022/01/21 01:21:20;;;;;;;;;;;3.10;96.70;;;;;;5044764;28;19943;-69
2022/01/21 01:29:14;;;;;;;;;;;3.10;96.70;;;;;;5049569;28;19923;-69
2022/01/21 01:31:39;;;;;;;;;;;3.00;96.70;;;;;;5048259;28;19916;-69
2022/01/21 01:34:05;;;;;;;;;;;3.10;96.70;;;;;;5046803;28;20003;-69
2022/01/21 01:36:31;;;;;;;;;;;3.00;96.60;;;;;;5047458;28;19917;-72
2022/01/21 01:41:35;;;;;;;;;;;3.00;96.70;;;;;;5047679;28;19920;-69
2022/01/21 01:49:37;;;;;;;;;;;3.00;96.70;;;;;;5044773;28;19923;-69
2022/01/21 01:52:04;;;;;;;;;;;3.00;96.70;;;;;;5028021;28;19920;-69
2022/01/21 01:54:30;;;;;;;;;;;3.00;96.70;;;;;;5034273;28;19919;-69
2022/01/21 01:56:57;;;;;;;;;;;3.00;96.70;;;;;;5047278;28;19948;-69
2022/01/21 01:59:23;;;;;;;;;;;3.00;96.70;;;;;;5047431;28;19947;-69
2022/01/21 02:01:56;;;;;;;;;;;3.00;96.70;;;;;;5042419;28;19913;-69
2022/01/21 02:04:22;;;;;;;;;;;3.00;96.70;;;;;;5045185;28;19913;-69
2022/01/21 02:06:48;;;;;;;;;;;3.00;96.70;;;;;;5061143;28;20373;-69
2022/01/21 02:09:14;;;;;;;;;;;3.00;96.70;;;;;;5044486;28;19920;-69
2022/01/21 02:11:39;;;;;;;;;;;3.00;96.60;;;;;;5048162;28;19917;-69
2022/01/21 02:14:09;;;;;;;;;;;3.00;96.70;;;;;;5042653;28;20008;-69
2022/01/21 02:16:44;;;;;;;;;;;3.00;96.60;;;;;;5050201;28;19921;-69
2022/01/21 02:21:54;;;;;;;;;;;3.00;96.60;;;;;;5052126;28;19936;-69
2022/01/21 02:24:23;;;;;;;;;;;3.00;96.60;;;;;;5043286;28;20526;-69
2022/01/21 02:26:50;;;;;;;;;;;3.00;96.70;;;;;;5045845;28;19924;-69
2022/01/21 02:29:26;;;;;;;;;;;3.00;96.70;;;;;;5044275;28;19927;-69
2022/01/21 02:31:52;;;;;;;;;;;3.00;96.70;;;;;;5055386;28;20001;-69
2022/01/21 02:34:17;;;;;;;;;;;3.00;96.70;;;;;;5042731;28;19963;-69
2022/01/21 02:36:43;;;;;;;;;;;3.00;96.70;;;;;;5048555;28;19913;-69
2022/01/21 02:39:08;;;;;;;;;;;3.00;96.70;;;;;;5047126;28;19916;-69
2022/01/21 02:41:34;;;;;;;;;;;3.00;96.70;;;;;;5061985;28;19924;-69
2022/01/21 02:43:59;;;;;;;;;;;3.00;96.70;;;;;;5047893;28;20011;-69
2022/01/21 02:46:26;;;;;;;;;;;3.00;96.60;;;;;;5042057;28;19920;-69
2022/01/21 02:48:52;;;;;;;;;;;3.00;96.60;;;;;;5049479;28;19940;-69
2022/01/21 02:51:18;;;;;;;;;;;3.00;96.70;;;;;;5043583;28;20247;-69
2022/01/21 02:56:13;;;;;;;;;;;3.00;96.60;;;;;;5043520;28;19928;-69
2022/01/21 02:58:39;;;;;;;;;;;3.00;96.60;;;;;;5052428;28;19916;-69
2022/01/21 03:01:06;;;;;;;;;;;3.00;96.70;;;;;;5026995;28;19940;-69
2022/01/21 03:03:31;;;;;;;;;;;3.00;96.70;;;;;;5036408;28;19916;-69
2022/01/21 03:05:57;;;;;;;;;;;3.00;96.70;;;;;;5044078;28;20007;-69
2022/01/21 03:08:23;;;;;;;;;;;3.00;96.70;;;;;;5048009;28;20292;-69
2022/01/21 03:10:48;;;;;;;;;;;3.00;96.70;;;;;;5026325;28;19920;-69
2022/01/21 03:13:15;;;;;;;;;;;3.00;96.70;;;;;;5047135;28;19917;-69
2022/01/21 03:15:40;;;;;;;;;;;3.00;96.80;;;;;;5047485;28;19948;-69
2022/01/21 03:18:06;;;;;;;;;;;3.00;96.70;;;;;;5047455;28;19944;-69
2022/01/21 03:20:31;;;;;;;;;;;3.00;96.70;;;;;;5048587;28;19943;-69
2022/01/21 03:22:59;;;;;;;;;;;3.00;96.70;;;;;;5062523;28;20007;-69
2022/01/21 03:25:24;;;;;;;;;;;3.00;96.70;;;;;;5051509;28;19920;-69
2022/01/21 03:27:50;;;;;;;;;;;3.00;96.70;;;;;;5044200;28;20366;-69
2022/01/21 03:30:15;;;;;;;;;;;3.00;96.70;;;;;;5048296;28;19921;-69
2022/01/21 03:32:41;;;;;;;;;;;3.00;96.70;;;;;;5058922;28;20020;-69
2022/01/21 03:35:07;;;;;;;;;;;3.00;96.70;;;;;;5053082;28;19916;-69
2022/01/21 03:37:33;;;;;;;;;;;3.00;96.70;;;;;;5044231;28;19963;-69
2022/01/21 03:39:58;;;;;;;;;;;3.00;96.80;;;;;;5042363;28;19917;-69
2022/01/21 03:42:24;;;;;;;;;;;3.00;96.70;;;;;;5043383;28;20308;-69
2022/01/21 03:44:49;;;;;;;;;;;3.00;96.70;;;;;;5045037;28;19917;-69
2022/01/21 03:47:15;;;;;;;;;;;3.00;96.80;;;;;;5041915;28;19932;-69
2022/01/21 03:49:53;;;;;;;;;;;3.00;96.80;;;;;;5054750;28;19936;-69
2022/01/21 03:52:19;;;;;;;;;;;3.00;96.70;;;;;;5042686;28;19927;-69
2022/01/21 03:54:45;;;;;;;;;;;3.00;96.70;;;;;;5046917;28;19917;-69
2022/01/21 03:57:10;;;;;;;;;;;3.00;96.70;;;;;;5046428;28;19944;-69
2022/01/21 03:59:35;;;;;;;;;;;3.00;96.70;;;;;;5051923;28;20031;-69
2022/01/21 04:02:04;;;;;;;;;;;3.00;96.70;;;;;;5054013;28;19919;-69
2022/01/21 04:04:30;;;;;;;;;;;3.00;96.70;;;;;;5046750;28;19927;-69
2022/01/21 04:06:55;;;;;;;;;;;3.00;96.70;;;;;;5050461;28;19957;-69
2022/01/21 04:09:21;;;;;;;;;;;3.00;96.70;;;;;;5048057;28;19924;-69
2022/01/21 04:11:46;;;;;;;;;;;3.00;96.70;;;;;;5049495;28;19913;-69
2022/01/21 04:14:12;;;;;;;;;;;3.00;96.80;;;;;;5046818;28;19913;-69
2022/01/21 04:16:37;;;;;;;;;;;3.00;96.80;;;;;;5059463;28;19916;-69
2022/01/21 04:19:03;;;;;;;;;;;3.00;96.80;;;;;;5046236;28;20019;-69
2022/01/21 04:21:28;;;;;;;;;;;3.00;97.00;;;;;;5051811;28;20568;-69
2022/01/21 04:23:54;;;;;;;;;;;3.00;96.80;;;;;;5044375;28;20378;-69
2022/01/21 04:26:19;;;;;;;;;;;3.00;96.70;;;;;;5053466;28;19912;-69
2022/01/21 04:28:45;;;;;;;;;;;3.00;96.80;;;;;;5048370;28;19955;-69
2022/01/21 04:31:11;;;;;;;;;;;3.00;96.80;;;;;;5050125;28;20041;-69
2022/01/21 04:33:36;;;;;;;;;;;3.00;96.80;;;;;;5047448;28;19952;-69
2022/01/21 04:36:02;;;;;;;;;;;3.00;96.80;;;;;;5046258;28;20651;-69
2022/01/21 04:38:27;;;;;;;;;;;3.00;96.80;;;;;;5051695;28;19953;-69
2022/01/21 04:41:17;;;;;;;;;;;3.00;96.80;;;;;;5045413;28;20412;-69
2022/01/21 04:49:11;;;;;;;;;;;3.00;96.80;;;;;;5050644;28;19920;-69
2022/01/21 04:52:01;;;;;;;;;;;3.00;96.80;;;;;;5047288;28;20273;-69
2022/01/21 04:54:22;;;;;;;;;;;3.00;96.80;;;;;;5049607;28;20366;-69
2022/01/21 04:56:47;;;;;;;;;;;3.00;96.80;;;;;;5046044;28;19916;-69
2022/01/21 04:59:13;;;;;;;;;;;3.00;96.80;;;;;;5047762;28;19913;-69
2022/01/21 05:01:38;;;;;;;;;;;3.00;96.90;;;;;;5046828;28;20447;-71
2022/01/21 05:04:04;;;;;;;;;;;3.00;96.80;;;;;;5049685;28;20003;-69
2022/01/21 05:06:29;;;;;;;;;;;3.00;96.80;;;;;;5045463;28;19909;-69
2022/01/21 05:08:55;;;;;;;;;;;3.00;96.80;;;;;;5057676;28;19912;-69
2022/01/21 05:11:21;;;;;;;;;;;3.00;96.80;;;;;;5045367;28;20872;-69
2022/01/21 05:13:58;;;;;;;;;;;3.00;96.80;;;;;;5048346;28;19992;-69
2022/01/21 05:18:52;;;;;;;;;;;3.00;96.70;;;;;;5053262;28;19917;-69
2022/01/21 05:21:18;;;;;;;;;;;3.00;97.00;;;;;;5046379;28;19935;-69
2022/01/21 05:23:43;;;;;;;;;;;3.00;96.80;;;;;;5048839;28;19916;-69
2022/01/21 05:26:10;;;;;;;;;;;3.00;96.80;;;;;;5053170;28;19916;-69
2022/01/21 05:28:36;;;;;;;;;;;3.10;96.80;;;;;;5048518;28;19960;-69
2022/01/21 05:31:01;;;;;;;;;;;3.00;96.80;;;;;;5050730;28;19960;-71
2022/01/21 05:33:27;;;;;;;;;;;3.00;96.80;;;;;;5047670;28;19913;-69
2022/01/21 05:35:52;;;;;;;;;;;3.00;96.80;;;;;;5058831;28;19917;-69
2022/01/21 05:38:18;;;;;;;;;;;3.00;96.80;;;;;;5041130;28;19921;-69
2022/01/21 05:40:46;;;;;;;;;;;3.00;96.80;;;;;;5044822;28;19952;-69
2022/01/21 05:43:11;;;;;;;;;;;3.00;96.80;;;;;;5044029;28;19913;-69
2022/01/21 05:48:21;;;;;;;;;;;3.00;96.90;;;;;;5045762;28;20385;-69
2022/01/21 05:50:46;;;;;;;;;;;3.00;96.80;;;;;;5052074;28;19912;-69
2022/01/21 05:53:13;;;;;;;;;;;3.00;96.90;;;;;;5045019;28;19928;-69
2022/01/21 05:55:41;;;;;;;;;;;3.00;96.80;;;;;;5050670;28;19917;-69
2022/01/21 05:58:11;;;;;;;;;;;3.00;96.90;;;;;;5045623;28;20281;-69
2022/01/21 06:00:37;;;;;;;;;;;3.00;96.80;;;;;;5046506;28;19917;-69
2022/01/21 06:03:05;;;;;;;;;;;3.00;96.80;;;;;;5042714;28;19923;-69
2022/01/21 06:05:33;;;;;;;;;;;3.00;96.90;;;;;;5049567;28;20568;-69
2022/01/21 06:08:00;;;;;;;;;;;3.00;96.90;;;;;;5046597;28;20291;-71
2022/01/21 06:10:26;;;;;;;;;;;3.00;96.80;;;;;;5046120;28;19908;-69
2022/01/21 06:12:51;;;;;;;;;;;3.00;96.90;;;;;;5048818;28;19921;-69
2022/01/21 06:15:17;;;;;;;;;;;3.00;96.90;;;;;;5048001;28;20019;-69
2022/01/21 06:17:42;;;;;;;;;;;3.00;96.90;;;;;;5050069;28;20324;-69
2022/01/21 06:20:08;;;;;;;;;;;3.10;96.90;;;;;;5044697;28;20563;-69
2022/01/21 06:22:33;;;;;;;;;;;3.00;96.80;;;;;;5049440;28;19916;-69
2022/01/21 06:24:59;;;;;;;;;;;3.00;96.90;;;;;;5043707;28;19919;-69
2022/01/21 06:27:27;;;;;;;;;;;3.10;96.90;;;;;;5058489;28;19913;-69
2022/01/21 06:29:53;;;;;;;;;;;3.00;96.90;;;;;;5042463;28;19928;-69
2022/01/21 06:32:19;;;;;;;;;;;3.00;96.90;;;;;;5048507;28;20387;-69
2022/01/21 06:34:44;;;;;;;;;;;3.00;96.90;;;;;;5042980;28;19917;-69
2022/01/21 06:37:10;;;;;;;;;;;3.00;96.90;;;;;;5054457;28;20302;-69
2022/01/21 06:39:35;;;;;;;;;;;3.00;96.90;;;;;;5043807;28;20020;-69
2022/01/21 06:42:01;;;;;;;;;;;3.00;96.90;;;;;;5045363;28;19921;-69
2022/01/21 06:44:26;;;;;;;;;;;3.00;96.90;;;;;;5030331;28;19921;-69
2022/01/21 06:46:52;;;;;;;;;;;3.00;96.90;;;;;;5047267;28;20661;-69
2022/01/21 06:49:17;;;;;;;;;;;3.10;96.90;;;;;;5045316;28;19917;-69
2022/01/21 06:51:43;;;;;;;;;;;3.00;96.90;;;;;;5046219;28;20096;-69
2022/01/21 06:54:09;;;;;;;;;;;3.00;96.90;;;;;;5053170;28;20109;-69
2022/01/21 06:56:34;;;;;;;;;;;3.00;96.90;;;;;;5046333;28;19913;-69
2022/01/21 06:59:00;;;;;;;;;;;3.00;96.90;;;;;;5047270;28;19916;-69
2022/01/21 07:01:25;;;;;;;;;;;3.00;97.00;;;;;;5041768;28;20389;-69
2022/01/21 07:03:51;;;;;;;;;;;3.00;97.00;;;;;;5054572;28;19939;-69
2022/01/21 07:06:16;;;;;;;;;;;3.10;96.90;;;;;;5043480;28;19947;-69
2022/01/21 07:08:42;;;;;;;;;;;3.00;96.90;;;;;;5051717;28;19917;-69
2022/01/21 07:11:07;;;;;;;;;;;3.00;96.90;;;;;;5044319;28;19919;-69
2022/01/21 07:13:34;;;;;;;;;;;3.10;96.90;;;;;;5050865;28;20521;-69
2022/01/21 07:15:59;;;;;;;;;;;3.00;96.90;;;;;;5048713;28;19912;-69
2022/01/21 07:18:25;;;;;;;;;;;3.00;96.90;;;;;;5046351;28;19919;-69
2022/01/21 07:20:51;;;;;;;;;;;3.00;96.90;;;;;;5042400;28;20004;-69
2022/01/21 07:23:16;;;;;;;;;;;3.00;96.90;;;;;;5061965;28;20370;-69
2022/01/21 07:25:42;;;;;;;;;;;3.00;97.00;;;;;;5048339;28;19924;-69
2022/01/21 07:28:09;;;;;;;;;;;3.00;97.00;;;;;;5044268;28;19924;-69
2022/01/21 07:30:34;;;;;;;;;;;3.00;97.00;;;;;;5056213;28;19920;-69
2022/01/21 07:33:00;;;;;;;;;;;3.00;97.00;;;;;;5044963;28;19917;-69
2022/01/21 07:35:25;;;;;;;;;;;3.00;97.00;;;;;;5048718;28;19912;-69
2022/01/21 07:37:51;;;;;;;;;;;3.00;97.00;;;;;;5042759;28;19913;-69
2022/01/21 07:40:16;;;;;;;;;;;3.00;96.90;;;;;;5048897;28;19919;-69
2022/01/21 07:42:42;;;;;;;;;;;3.00;97.00;;;;;;5026117;28;19978;-69
2022/01/21 07:45:07;;;;;;;;;;;3.00;96.90;;;;;;5047652;28;19939;-69
2022/01/21 07:47:33;;;;;;;;;;;3.00;97.00;;;;;;5043640;28;20015;-69
2022/01/21 07:49:58;;;;;;;;;;;3.00;97.00;;;;;;5044466;28;20616;-69
2022/01/21 07:52:24;;;;;;;;;;;3.00;96.90;;;;;;5043914;28;19912;-69
2022/01/21 07:54:49;;;;;;;;;;;3.00;97.00;;;;;;5045677;28;20278;-69
2022/01/21 07:57:15;;;;;;;;;;;3.00;97.30;;;;;;5042721;28;19913;-69
2022/01/21 07:59:40;;;;;;;;;;;3.00;97.00;;;;;;5045838;28;19913;-69
2022/01/21 08:02:06;;;;;;;;;;;3.00;97.00;;;;;;5046462;28;19947;-69
2022/01/21 08:04:32;;;;;;;;;;;3.00;97.00;;;;;;5042287;28;21443;-69
2022/01/21 08:06:57;;;;;;;;;;;3.00;96.90;;;;;;5053731;28;20011;-69
2022/01/21 08:09:25;;;;;;;;;;;3.00;97.00;;;;;;5043842;28;19913;-69
2022/01/21 08:11:54;;;;;;;;;;;3.00;96.90;;;;;;5048147;28;20100;-69
2022/01/21 08:14:20;;;;;;;;;;;3.00;96.90;;;;;;5040006;28;19921;-69
2022/01/21 08:16:45;;;;;;;;;;;3.00;97.00;;;;;;5049876;28;19913;-69
2022/01/21 08:19:13;;;;;;;;;;;3.00;97.00;;;;;;5041023;28;20377;-69
2022/01/21 08:21:39;;;;;;;;;;;3.00;97.00;;;;;;5045151;28;19912;-69
2022/01/21 08:24:06;;;;;;;;;;;3.00;97.00;;;;;;5043782;28;20008;-69
2022/01/21 08:26:32;;;;;;;;;;;3.00;97.00;;;;;;5049147;28;19908;-69
2022/01/21 08:28:58;;;;;;;;;;;3.00;96.90;;;;;;5042799;28;19923;-69
2022/01/21 08:31:24;;;;;;;;;;;3.00;97.00;;;;;;5060504;28;19916;-69
2022/01/21 08:33:50;;;;;;;;;;;3.00;97.00;;;;;;5044852;28;19943;-69
2022/01/21 08:36:18;;;;;;;;;;;3.00;97.00;;;;;;5045263;28;19909;-69
2022/01/21 08:38:43;;;;;;;;;;;3.00;97.00;;;;;;5040352;28;19959;-70
2022/01/21 08:41:09;;;;;;;;;;;3.00;97.00;;;;;;5045337;28;19952;-71
2022/01/21 08:43:34;;;;;;;;;;;3.00;97.00;;;;;;5053969;28;19909;-69
2022/01/21 08:46:00;;;;;;;;;;;3.00;97.00;;;;;;5047367;28;19982;-69
2022/01/21 08:48:25;;;;;;;;;;;3.00;97.00;;;;;;5032745;28;19917;-69
2022/01/21 08:50:51;;;;;;;;;;;3.00;97.00;;;;;;5044168;28;20637;-69
2022/01/21 08:56:00;;;;;;;;;;;3.00;97.00;;;;;;5044039;28;19947;-69
2022/01/21 08:58:26;;;;;;;;;;;3.00;97.20;;;;;;5070972;28;20378;-69
2022/01/21 09:00:52;;;;;;;;;;;3.00;97.10;;;;;;5044066;28;19921;-69
2022/01/21 09:03:17;;;;;;;;;;;3.00;97.10;;;;;;5048609;28;19913;-69
2022/01/21 09:05:48;;;;;;;;;;;3.00;97.10;;;;;;5044331;28;19923;-69
2022/01/21 09:08:17;;;;;;;;;;;3.10;97.10;;;;;;5049381;28;20638;-69
2022/01/21 09:10:43;;;;;;;;;;;3.00;97.00;;;;;;5033402;28;20008;-69
2022/01/21 09:13:08;;;;;;;;;;;3.00;97.10;;;;;;5049422;28;20058;-69
2022/01/21 09:15:35;;;;;;;;;;;3.00;97.10;;;;;;5045531;28;20015;-69
2022/01/21 09:18:04;;;;;;;;;;;3.00;97.10;;;;;;5048197;28;19982;-69
2022/01/21 09:20:30;;;;;;;;;;;3.10;97.10;;;;;;5047273;28;19958;-69
2022/01/21 09:22:56;;;;;;;;;;;3.00;97.10;;;;;;5048161;28;20438;-69
2022/01/21 09:25:21;;;;;;;;;;;3.10;97.10;;;;;;5055589;28;19940;-69
2022/01/21 09:27:47;;;;;;;;;;;3.10;97.10;;;;;;5047736;28;19990;-69
2022/01/21 09:30:13;;;;;;;;;;;3.00;97.10;;;;;;5048459;28;19936;-69
2022/01/21 09:32:38;;;;;;;;;;;3.10;97.10;;;;;;5043153;28;20634;-69
2022/01/21 09:35:04;;;;;;;;;;;3.10;97.10;;;;;;5049243;28;19999;-69
2022/01/21 09:37:30;;;;;;;;;;;3.20;97.10;;;;;;5043599;28;19948;-69
2022/01/21 09:39:55;;;;;;;;;;;3.20;97.00;;;;;;5049673;28;19952;-69
2022/01/21 09:42:21;;;;;;;;;;;3.20;96.90;;;;;;5044026;28;19912;-69
2022/01/21 09:44:48;;;;;;;;;;;3.20;97.00;;;;;;5047678;28;20365;-69
2022/01/21 09:47:16;;;;;;;;;;;3.20;97.00;;;;;;5048867;28;20016;-69
2022/01/21 09:49:43;;;;;;;;;;;3.20;97.00;;;;;;5048273;28;19917;-69
2022/01/21 09:52:10;;;;;;;;;;;3.30;97.00;;;;;;5048221;28;20019;-69
2022/01/21 09:54:37;;;;;;;;;;;3.30;96.90;;;;;;5045661;28;19928;-69
2022/01/21 09:57:04;;;;;;;;;;;3.30;97.00;;;;;;5047219;28;19923;-69
2022/01/21 09:59:31;;;;;;;;;;;3.30;96.90;;;;;;5046591;28;19917;-69
2022/01/21 10:01:58;;;;;;;;;;;3.30;97.00;;;;;;5049210;28;19977;-69
2022/01/21 10:04:29;;;;;;;;;;;3.40;97.00;;;;;;5030422;28;19913;-70
2022/01/21 10:06:55;;;;;;;;;;;3.40;96.90;;;;;;5045420;28;19923;-69
2022/01/21 10:09:21;;;;;;;;;;;3.40;96.90;;;;;;5028884;28;20007;-69
2022/01/21 10:11:50;;;;;;;;;;;3.40;97.00;;;;;;5045855;28;19912;-69
2022/01/21 10:14:16;;;;;;;;;;;3.40;97.00;;;;;;5045337;28;19927;-69
2022/01/21 10:16:46;;;;;;;;;;;3.40;97.00;;;;;;5051162;28;19913;-69
2022/01/21 10:19:11;;;;;;;;;;;3.40;97.00;;;;;;5026919;28;19913;-69
2022/01/21 10:21:39;;;;;;;;;;;3.50;97.00;;;;;;5047259;28;20010;-69
2022/01/21 10:24:14;;;;;;;;;;;3.50;97.00;;;;;;5045220;28;19917;-69
2022/01/21 10:26:47;;;;;;;;;;;3.50;96.90;;;;;;5045587;28;19921;-69
2022/01/21 10:29:13;;;;;;;;;;;3.50;97.00;;;;;;5044484;28;19920;-69
2022/01/21 10:31:49;;;;;;;;;;;3.60;96.90;;;;;;5045915;28;20361;-69
2022/01/21 10:34:22;;;;;;;;;;;3.60;96.90;;;;;;5041789;28;19990;-69
2022/01/21 10:36:54;;;;;;;;;;;3.70;96.80;;;;;;5047856;28;20328;-69
2022/01/21 10:39:30;;;;;;;;;;;3.70;96.70;;;;;;5042923;28;20366;-69
2022/01/21 10:41:57;;;;;;;;;;;3.70;96.70;;;;;;5045693;28;19916;-69
2022/01/21 10:47:46;;;;;;;;;;;3.70;96.80;;;;;;5047175;28;19965;-69
2022/01/21 10:50:13;;;;;;;;;;;3.80;97.10;;;;;;5044755;28;19913;-69
2022/01/21 10:52:42;;;;;;;;;;;3.80;96.80;;;;;;5046637;28;20301;-69
2022/01/21 10:55:25;;;;;;;;;;;3.80;96.80;;;;;;5045488;28;20342;-69
2022/01/21 10:58:03;;;;;;;;;;;3.90;96.70;;;;;;5046970;28;20282;-69
2022/01/21 11:00:28;;;;;;;;;;;3.90;96.70;;;;;;5044919;28;19921;-69
2022/01/21 11:02:54;;;;;;;;;;;3.90;96.60;;;;;;5045873;28;19915;-69
2022/01/21 11:05:20;;;;;;;;;;;4.00;96.60;;;;;;5045564;28;19959;-70
2022/01/21 11:07:48;;;;;;;;;;;4.00;96.60;;;;;;5046176;28;19964;-69
2022/01/21 11:10:32;;;;;;;;;;;4.00;96.50;;;;;;5046066;28;19936;-69
2022/01/21 11:13:01;;;;;;;;;;;4.10;96.70;;;;;;5046269;28;19917;-69
2022/01/21 11:15:47;;;;;;;;;;;4.10;96.60;;;;;;5049839;28;19938;-69
2022/01/21 11:18:18;;;;;;;;;;;4.10;96.60;;;;;;5046193;28;19919;-69
2022/01/21 11:20:47;;;;;;;;;;;4.10;96.60;;;;;;5045010;28;20002;-69
2022/01/21 11:23:12;;;;;;;;;;;4.20;96.60;;;;;;5027707;28;19925;-69
2022/01/21 11:25:47;;;;;;;;;;;4.20;96.60;;;;;;5052300;28;19923;-69
2022/01/21 11:28:22;;;;;;;;;;;4.20;96.60;;;;;;5044494;28;19990;-69
2022/01/21 11:30:48;;;;;;;;;;;4.30;96.50;;;;;;5043002;28;20004;-69
2022/01/21 11:33:14;;;;;;;;;;;4.40;96.40;;;;;;5042452;28;19913;-69
2022/01/21 11:35:40;;;;;;;;;;;4.40;96.40;;;;;;5043410;28;19939;-69
2022/01/21 11:38:06;;;;;;;;;;;4.50;96.20;;;;;;5043304;28;19913;-69
2022/01/21 11:40:32;;;;;;;;;;;4.50;96.20;;;;;;5043675;28;19936;-69
2022/01/21 11:42:58;;;;;;;;;;;4.60;96.10;;;;;;5031483;28;19917;-69
2022/01/21 11:45:43;;;;;;;;;;;4.60;96.20;;;;;;5041186;28;19913;-69
2022/01/21 11:50:38;;;;;;;;;;;4.60;96.00;;;;;;5044389;28;19909;-69
2022/01/21 11:53:05;;;;;;;;;;;4.70;96.10;;;;;;5025497;28;19916;-69
2022/01/21 11:55:45;;;;;;;;;;;4.60;96.10;;;;;;5044920;28;19944;-69
2022/01/21 11:58:11;;;;;;;;;;;4.60;96.20;;;;;;5043624;28;20449;-69
2022/01/21 12:00:37;;;;;;;;;;;4.60;96.30;;;;;;5046163;28;19940;-69
2022/01/21 12:03:02;;;;;;;;;;;4.70;96.30;;;;;;5044557;28;19919;-69
2022/01/21 12:05:28;;;;;;;;;;;4.60;96.30;;;;;;5045757;28;20565;-69
2022/01/21 12:07:54;;;;;;;;;;;4.60;96.30;;;;;;5047731;28;19970;-69
2022/01/21 12:10:22;;;;;;;;;;;4.60;96.30;;;;;;5046285;28;19912;-69
2022/01/21 12:12:54;;;;;;;;;;;4.60;96.40;;;;;;5044572;28;20003;-69
2022/01/21 12:15:25;;;;;;;;;;;4.60;96.50;;;;;;5045721;28;19936;-69
2022/01/21 12:18:03;;;;;;;;;;;4.60;96.50;;;;;;5045774;28;19912;-69
2022/01/21 12:20:30;;;;;;;;;;;4.70;96.50;;;;;;5049674;28;19921;-69
2022/01/21 12:23:12;;;;;;;;;;;4.60;96.60;;;;;;5053125;28;19920;-69
2022/01/21 12:25:57;;;;;;;;;;;4.60;96.60;;;;;;5048905;28;20720;-69
2022/01/21 12:28:22;;;;;;;;;;;4.60;96.80;;;;;;5047438;28;19966;-69
2022/01/21 12:30:54;;;;;;;;;;;4.60;96.70;;;;;;5048413;28;19956;-70
2022/01/21 12:33:19;;;;;;;;;;;4.60;96.70;;;;;;5052002;28;19916;-69
2022/01/21 12:35:46;;;;;;;;;;;4.60;96.70;;;;;;5050408;28;19921;-69
2022/01/21 12:41:14;;;;;;;;;;;4.60;96.70;;;;;;5049001;28;20553;-69
2022/01/21 12:43:48;;;;;;;;;;;4.60;96.80;;;;;;5040634;28;19962;-69
2022/01/21 12:46:15;;;;;;;;;;;4.60;96.80;;;;;;5044989;28;20403;-69
2022/01/21 12:48:41;;;;;;;;;;;4.60;96.80;;;;;;5048494;28;20008;-69
2022/01/21 12:51:15;;;;;;;;;;;4.60;96.80;;;;;;5050660;28;19917;-69
2022/01/21 12:55:55;;;;;;;;;;;4.60;96.90;;;;;;5045505;28;19921;-69
2022/01/21 12:56:27;;;;;;;;;;;4.60;96.90;;;;;;5047054;28;19916;-69
2022/01/21 12:58:52;;;;;;;;;;;4.60;96.90;;;;;;5052418;28;19917;-69
2022/01/21 13:01:19;;;;;;;;;;;4.60;96.90;;;;;;5047697;28;19924;-69
2022/01/21 13:03:51;;;;;;;;;;;4.70;96.90;;;;;;5043897;28;19920;-69
2022/01/21 13:06:19;;;;;;;;;;;4.70;96.90;;;;;;5031115;28;19913;-69
2022/01/21 13:08:47;;;;;;;;;;;4.60;96.90;;;;;;5045461;28;19916;-69
2022/01/21 13:11:20;;;;;;;;;;;4.60;96.90;;;;;;5048664;28;19923;-69
2022/01/21 13:13:52;;;;;;;;;;;4.60;97.20;;;;;;5045287;28;19916;-69
2022/01/21 13:16:25;;;;;;;;;;;4.60;97.00;;;;;;5047264;28;19920;-69
2022/01/21 13:18:57;;;;;;;;;;;4.60;97.10;;;;;;5048300;28;19916;-69
2022/01/21 13:21:22;;;;;;;;;;;4.60;97.10;;;;;;5049127;28;19913;-69
2022/01/21 13:23:58;;;;;;;;;;;4.60;97.10;;;;;;5048074;28;19959;-69
2022/01/21 13:26:35;;;;;;;;;;;4.60;97.10;;;;;;5036436;28;19971;-69
2022/01/21 13:29:09;;;;;;;;;;;4.60;97.10;;;;;;5048028;28;20449;-69
2022/01/21 13:31:36;;;;;;;;;;;4.60;97.10;;;;;;5049025;28;19936;-69
2022/01/21 13:34:09;;;;;;;;;;;4.60;97.10;;;;;;5031980;28;20449;-69
2022/01/21 13:36:39;;;;;;;;;;;4.60;97.40;;;;;;5029694;28;20023;-69
2022/01/21 13:39:14;;;;;;;;;;;4.60;97.10;;;;;;5048064;28;19927;-69
2022/01/21 13:41:47;;;;;;;;;;;4.60;97.20;;;;;;5030104;28;20545;-70
2022/01/21 13:44:22;;;;;;;;;;;4.60;97.20;;;;;;5047044;28;19927;-69
2022/01/21 13:46:47;;;;;;;;;;;4.60;97.20;;;;;;5045961;28;19921;-69
2022/01/21 13:49:13;;;;;;;;;;;4.60;97.20;;;;;;5046765;28;19995;-69
2022/01/21 13:51:50;;;;;;;;;;;4.60;97.20;;;;;;5032783;28;19920;-69
2022/01/21 13:54:16;;;;;;;;;;;4.60;97.20;;;;;;5046960;28;19952;-69
2022/01/21 13:56:46;;;;;;;;;;;4.60;97.20;;;;;;5028859;28;20423;-69
2022/01/21 13:59:11;;;;;;;;;;;4.60;97.20;;;;;;5045506;28;19924;-70
2022/01/21 14:01:37;;;;;;;;;;;4.60;97.30;;;;;;5047092;28;19917;-69
2022/01/21 14:04:07;;;;;;;;;;;4.60;97.30;;;;;;5049227;28;19917;-69
2022/01/21 14:06:33;;;;;;;;;;;4.60;97.30;;;;;;5048309;28;19917;-69
2022/01/21 14:09:00;;;;;;;;;;;4.60;97.30;;;;;;5052099;28;19935;-69
2022/01/21 14:11:35;;;;;;;;;;;4.60;97.30;;;;;;5044372;28;19920;-69
2022/01/21 14:14:05;;;;;;;;;;;4.60;97.30;;;;;;5045506;28;19932;-69
2022/01/21 14:16:31;;;;;;;;;;;4.60;97.30;;;;;;5044849;28;19921;-69
2022/01/21 14:18:57;;;;;;;;;;;4.60;97.40;;;;;;5049693;28;19927;-69
2022/01/21 14:21:24;;;;;;;;;;;4.60;97.40;;;;;;5046119;28;19939;-69
2022/01/21 14:23:50;;;;;;;;;;;4.60;97.40;;;;;;5051665;28;20003;-69
2022/01/21 14:26:17;;;;;;;;;;;4.60;97.40;;;;;;5045996;28;20367;-69
2022/01/21 14:28:56;;;;;;;;;;;4.60;97.40;;;;;;5045633;28;19970;-69
2022/01/21 14:31:33;;;;;;;;;;;4.60;97.40;;;;;;5048115;28;19952;-69
2022/01/21 14:34:04;;;;;;;;;;;4.60;97.40;;;;;;5047231;28;19925;-69
2022/01/21 14:36:30;;;;;;;;;;;4.60;97.50;;;;;;5044172;28;20008;-69
2022/01/21 14:39:14;;;;;;;;;;;4.60;97.50;;;;;;5045677;28;20003;-69
2022/01/21 14:41:40;;;;;;;;;;;4.60;97.50;;;;;;5042056;28;19921;-69
2022/01/21 14:44:08;;;;;;;;;;;4.60;97.60;;;;;;5049803;28;19916;-69
2022/01/21 14:46:34;;;;;;;;;;;4.60;97.60;;;;;;5044710;28;19935;-69
2022/01/21 14:49:01;;;;;;;;;;;4.50;97.60;;;;;;5050159;28;19921;-70
2022/01/21 14:51:33;;;;;;;;;;;4.50;97.60;;;;;;5049147;28;20003;-69
2022/01/21 14:54:18;;;;;;;;;;;4.60;97.60;;;;;;5043732;28;19923;-69
2022/01/21 14:56:57;;;;;;;;;;;4.50;97.60;;;;;;5043844;28;19928;-69
2022/01/21 14:59:22;;;;;;;;;;;4.50;97.60;;;;;;5048556;28;19913;-69
2022/01/21 15:01:55;;;;;;;;;;;4.50;97.60;;;;;;5031127;28;19924;-69
2022/01/21 15:04:21;;;;;;;;;;;4.50;97.60;;;;;;5043875;28;20450;-69
2022/01/21 15:06:46;;;;;;;;;;;4.50;97.70;;;;;;5043915;28;19932;-69
2022/01/21 15:09:14;;;;;;;;;;;4.50;97.60;;;;;;5042563;28;19920;-69
2022/01/21 15:12:08;;;;;;;;;;;4.50;97.60;;;;;;5045767;28;20301;-69
2022/01/21 15:14:43;;;;;;;;;;;4.50;97.60;;;;;;5043593;28;19921;-69
2022/01/21 15:17:16;;;;;;;;;;;4.50;97.70;;;;;;5048169;28;19995;-69
2022/01/21 15:19:46;;;;;;;;;;;4.50;97.70;;;;;;5045149;28;20388;-69
2022/01/21 15:22:13;;;;;;;;;;;4.50;97.70;;;;;;5029378;28;20491;-69
2022/01/21 15:24:40;;;;;;;;;;;4.50;97.70;;;;;;5043091;28;20188;-69
2022/01/21 15:27:05;;;;;;;;;;;4.50;97.70;;;;;;5051897;28;20552;-69
2022/01/21 15:29:31;;;;;;;;;;;4.60;97.70;;;;;;5043966;28;19920;-69
2022/01/21 15:31:56;;;;;;;;;;;4.50;97.70;;;;;;5050626;28;19951;-69
2022/01/21 15:34:22;;;;;;;;;;;4.50;97.70;;;;;;5043800;28;19905;-69
2022/01/21 15:36:48;;;;;;;;;;;4.50;97.70;;;;;;5045999;28;20063;-69